createdAt,value
2019-06-10T00:01:36.200Z,99.90
2019-06-10T00:04:08.630Z,99.90
2019-06-10T00:06:36.855Z,99.90
2019-06-10T00:09:08.172Z,99.90
2019-06-10T00:11:37.832Z,99.90
2019-06-10T00:14:07.448Z,99.90
2019-06-10T00:16:36.929Z,99.90
2019-06-10T00:19:09.399Z,99.90
2019-06-10T00:21:41.341Z,99.90
2019-06-10T00:24:11.842Z,99.90
2019-06-10T00:26:41.473Z,99.90
2019-06-10T00:29:11.988Z,99.90
2019-06-10T00:31:41.830Z,99.90
2019-06-10T00:34:12.643Z,99.90
2019-06-10T00:36:42.126Z,99.90
2019-06-10T00:39:13.541Z,99.90
2019-06-10T00:41:42.966Z,99.90
2019-06-10T00:44:12.866Z,99.90
2019-06-10T00:46:43.421Z,99.90
2019-06-10T00:49:14.760Z,99.90
2019-06-10T00:51:44.014Z,99.90
2019-06-10T00:54:15.754Z,99.90
2019-06-10T00:56:44.614Z,99.90
2019-06-10T00:59:15.489Z,99.90
2019-06-10T01:01:45.067Z,99.90
2019-06-10T01:04:16.352Z,99.90
2019-06-10T01:06:45.647Z,99.90
2019-06-10T01:09:16.195Z,99.90
2019-06-10T01:11:45.674Z,99.90
2019-06-10T01:14:16.119Z,99.90
2019-06-10T01:16:45.619Z,99.90
2019-06-10T01:19:15.743Z,99.90
2019-06-10T01:21:45.415Z,99.90
2019-06-10T01:24:14.925Z,99.90
2019-06-10T01:26:44.397Z,99.90
2019-06-10T01:29:15.467Z,99.90
2019-06-10T01:31:46.330Z,99.90
2019-06-10T01:34:15.819Z,99.90
2019-06-10T01:36:45.323Z,99.90
2019-06-10T01:39:16.432Z,99.90
2019-06-10T01:41:45.920Z,99.90
2019-06-10T01:44:16.458Z,99.90
2019-06-10T01:46:46.518Z,99.90
2019-06-10T01:49:16.792Z,99.90
2019-06-10T01:51:47.143Z,99.90
2019-06-10T01:54:18.276Z,99.90
2019-06-10T01:56:47.749Z,99.90
2019-06-10T01:59:18.569Z,99.90
2019-06-10T02:02:00.960Z,99.90
2019-06-10T02:04:32.088Z,99.90
2019-06-10T02:07:01.409Z,99.90
2019-06-10T02:09:31.155Z,99.90
2019-06-10T02:12:02.262Z,99.90
2019-06-10T02:14:32.063Z,99.90
2019-06-10T02:17:01.571Z,99.90
2019-06-10T02:19:31.418Z,99.90
2019-06-10T02:22:01.937Z,99.90
2019-06-10T02:24:32.400Z,99.90
2019-06-10T02:27:01.946Z,99.90
2019-06-10T02:29:31.438Z,99.90
2019-06-10T02:32:04.798Z,99.90
2019-06-10T02:34:36.629Z,99.90
2019-06-10T02:37:04.746Z,99.90
2019-06-10T02:39:38.701Z,99.90
2019-06-10T02:42:07.544Z,99.90
2019-06-10T02:44:37.788Z,99.90
2019-06-10T02:47:07.525Z,99.90
2019-06-10T02:49:56.429Z,99.90
2019-06-10T02:52:13.902Z,99.90
2019-06-10T02:54:43.910Z,99.90
2019-06-10T02:57:14.626Z,99.90
2019-06-10T02:59:44.679Z,99.90
2019-06-10T03:02:15.641Z,99.90
2019-06-10T03:04:45.163Z,99.90
2019-06-10T03:07:15.878Z,99.90
2019-06-10T03:09:45.451Z,99.90
2019-06-10T03:12:15.655Z,99.90
2019-06-10T03:14:45.220Z,99.90
2019-06-10T03:17:17.704Z,99.90
2019-06-10T03:19:50.548Z,99.90
2019-06-10T03:22:18.426Z,99.90
2019-06-10T03:24:47.926Z,99.90
2019-06-10T03:27:18.354Z,99.90
2019-06-10T03:29:47.933Z,99.90
2019-06-10T03:32:20.118Z,99.90
2019-06-10T03:34:48.549Z,99.90
2019-06-10T03:37:18.321Z,99.90
2019-06-10T03:39:47.833Z,99.90
2019-06-10T03:42:17.322Z,99.90
2019-06-10T03:44:46.849Z,99.90
2019-06-10T03:47:17.070Z,99.90
2019-06-10T03:49:51.960Z,99.90
2019-06-10T03:52:18.917Z,99.90
2019-06-10T03:54:48.806Z,99.90
2019-06-10T03:57:19.242Z,99.90
2019-06-10T03:59:48.895Z,99.90
2019-06-10T04:02:19.405Z,99.90
2019-06-10T04:04:49.006Z,99.90
2019-06-10T04:07:20.862Z,99.90
2019-06-10T04:09:49.682Z,99.90
2019-06-10T04:12:19.505Z,99.90
2019-06-10T04:14:49.146Z,99.90
2019-06-10T04:17:19.552Z,99.90
2019-06-10T04:20:05.216Z,99.90
2019-06-10T04:22:22.323Z,99.90
2019-06-10T04:24:52.075Z,99.90
2019-06-10T04:27:22.741Z,99.90
2019-06-10T04:29:52.699Z,99.90
2019-06-10T04:32:23.160Z,99.90
2019-06-10T04:34:54.398Z,99.90
2019-06-10T04:37:25.884Z,99.90
2019-06-10T04:39:57.488Z,99.90
2019-06-10T04:42:27.261Z,99.90
2019-06-10T04:44:56.949Z,99.90
2019-06-10T04:47:27.924Z,99.90
2019-06-10T04:49:57.581Z,99.90
2019-06-10T04:52:28.425Z,99.90
2019-06-10T04:54:58.174Z,99.90
2019-06-10T04:57:28.404Z,99.90
2019-06-10T04:59:58.782Z,99.90
2019-06-10T05:02:28.959Z,99.90
2019-06-10T05:04:59.487Z,99.90
2019-06-10T05:07:32.579Z,99.90
2019-06-10T05:10:00.116Z,99.90
2019-06-10T05:12:29.698Z,99.90
2019-06-10T05:14:59.214Z,99.90
2019-06-10T05:17:29.680Z,99.90
2019-06-10T05:20:02.318Z,99.90
2019-06-10T05:22:32.830Z,99.90
2019-06-10T05:25:02.573Z,99.90
2019-06-10T05:27:33.035Z,99.90
2019-06-10T05:30:02.714Z,99.90
2019-06-10T05:32:33.447Z,99.90
2019-06-10T05:35:03.798Z,99.90
2019-06-10T05:37:33.905Z,99.90
2019-06-10T05:40:06.027Z,99.90
2019-06-10T05:42:36.162Z,99.90
2019-06-10T05:45:07.511Z,99.90
2019-06-10T05:47:36.993Z,99.90
2019-06-10T05:50:07.939Z,99.90
2019-06-10T05:52:37.571Z,99.90
2019-06-10T05:55:07.303Z,99.90
2019-06-10T05:57:36.780Z,99.90
2019-06-10T06:00:13.954Z,99.90
2019-06-10T06:02:39.620Z,99.90
2019-06-10T06:05:12.663Z,99.90
2019-06-10T06:07:44.398Z,99.90
2019-06-10T06:10:14.335Z,99.90
2019-06-10T06:12:43.831Z,99.90
2019-06-10T06:15:13.809Z,99.90
2019-06-10T06:17:43.452Z,99.90
2019-06-10T06:20:13.505Z,99.90
2019-06-10T06:22:43.165Z,99.90
2019-06-10T06:25:16.056Z,99.90
2019-06-10T06:27:45.684Z,99.90
2019-06-10T06:30:18.726Z,99.90
2019-06-10T06:32:47.620Z,99.90
2019-06-10T06:35:18.155Z,99.90
2019-06-10T06:37:47.633Z,99.90
2019-06-10T06:40:17.679Z,99.90
2019-06-10T06:42:47.170Z,99.90
2019-06-10T06:45:18.729Z,99.90
2019-06-10T06:47:48.199Z,99.90
2019-06-10T06:50:17.947Z,99.90
2019-06-10T06:53:18.695Z,99.90
2019-06-10T06:55:19.765Z,99.90
2019-06-10T06:57:49.258Z,99.90
2019-06-10T07:00:38.201Z,99.90
2019-06-10T07:02:53.053Z,99.90
2019-06-10T07:05:22.913Z,99.90
2019-06-10T07:07:52.797Z,99.90
2019-06-10T07:10:22.853Z,99.90
2019-06-10T07:12:54.908Z,99.90
2019-06-10T07:15:27.482Z,99.90
2019-06-10T07:17:57.042Z,99.90
2019-06-10T07:20:26.534Z,99.90
2019-06-10T07:22:56.086Z,99.90
2019-06-10T07:25:25.583Z,99.90
2019-06-10T07:27:55.155Z,99.90
2019-06-10T07:30:24.758Z,99.90
2019-06-10T07:32:54.312Z,99.90
2019-06-10T07:35:24.831Z,99.90
2019-06-10T07:37:54.479Z,99.90
2019-06-10T07:40:24.173Z,99.90
2019-06-10T07:42:53.751Z,99.90
2019-06-10T07:45:23.248Z,99.90
2019-06-10T07:47:52.825Z,99.90
2019-06-10T07:50:22.764Z,99.90
2019-06-10T07:52:52.914Z,99.90
2019-06-10T07:55:22.512Z,99.90
2019-06-10T07:57:53.069Z,99.90
2019-06-10T08:00:23.180Z,99.90
2019-06-10T08:02:53.179Z,99.90
2019-06-10T08:05:23.541Z,99.90
2019-06-10T08:07:54.787Z,99.90
2019-06-10T08:10:24.506Z,99.90
2019-06-10T08:12:54.019Z,99.90
2019-06-10T08:15:23.621Z,99.90
2019-06-10T08:17:53.255Z,99.90
2019-06-10T08:20:43.202Z,99.90
2019-06-10T08:23:12.605Z,99.90
2019-06-10T08:25:46.804Z,99.90
2019-06-10T08:28:15.602Z,99.90
2019-06-10T08:30:46.051Z,99.90
2019-06-10T08:33:16.113Z,99.90
2019-06-10T08:35:54.941Z,99.90
2019-06-10T08:38:16.753Z,99.90
2019-06-10T08:40:48.382Z,99.90
2019-06-10T08:43:17.357Z,99.90
2019-06-10T08:45:48.438Z,99.90
2019-06-10T08:48:17.982Z,99.90
2019-06-10T08:50:49.920Z,99.90
2019-06-10T08:53:18.626Z,99.90
2019-06-10T08:55:50.124Z,99.90
2019-06-10T08:58:19.256Z,99.90
2019-06-10T09:00:49.533Z,99.90
2019-06-10T09:03:20.281Z,99.90
2019-06-10T09:05:51.100Z,99.90
2019-06-10T09:08:23.408Z,99.90
2019-06-10T09:10:54.945Z,99.90
2019-06-10T09:13:23.154Z,99.90
2019-06-10T09:16:09.759Z,99.90
2019-06-10T09:18:23.797Z,99.90
2019-06-10T09:20:55.977Z,99.90
2019-06-10T09:23:25.659Z,99.90
2019-06-10T09:25:57.419Z,99.90
2019-06-10T09:28:27.197Z,99.90
2019-06-10T09:30:59.343Z,99.90
2019-06-10T09:33:28.042Z,99.90
2019-06-10T09:35:57.579Z,99.90
2019-06-10T09:38:27.076Z,99.90
2019-06-10T09:41:01.826Z,99.90
2019-06-10T09:43:27.768Z,99.90
2019-06-10T09:45:57.406Z,99.90
2019-06-10T09:48:26.978Z,99.90
2019-06-10T09:50:58.717Z,98.10
2019-06-10T09:53:42.014Z,97.30
2019-06-10T09:55:58.779Z,96.90
2019-06-10T09:58:28.424Z,98.20
2019-06-10T10:00:59.239Z,98.80
2019-06-10T10:03:28.744Z,97.00
2019-06-10T10:06:09.925Z,99.90
2019-06-10T10:08:29.355Z,97.70
2019-06-10T10:10:59.316Z,97.90
2019-06-10T10:13:29.070Z,99.70
2019-06-10T10:15:58.703Z,99.90
2019-06-10T10:18:28.210Z,99.90
2019-06-10T10:21:00.251Z,99.90
2019-06-10T10:23:29.014Z,99.90
2019-06-10T10:25:58.519Z,99.10
2019-06-10T10:28:42.369Z,99.60
2019-06-10T10:31:58.779Z,99.90
2019-06-10T10:34:28.360Z,99.90
2019-06-10T10:37:19.242Z,99.90
2019-06-10T10:39:49.107Z,99.90
2019-06-10T10:42:18.600Z,99.90
2019-06-10T10:44:51.865Z,98.70
2019-06-10T10:47:19.298Z,99.90
2019-06-10T10:49:52.939Z,99.90
2019-06-10T10:52:22.422Z,99.90
2019-06-10T10:54:54.297Z,99.90
2019-06-10T10:57:23.243Z,99.90
2019-06-10T10:59:55.942Z,98.00
2019-06-10T11:02:23.802Z,99.60
2019-06-10T11:04:55.371Z,99.90
2019-06-10T11:07:24.429Z,97.00
2019-06-10T11:09:56.710Z,94.90
2019-06-10T11:12:25.845Z,96.80
2019-06-10T11:15:00.475Z,99.90
2019-06-10T11:17:26.531Z,99.90
2019-06-10T11:19:56.043Z,99.90
2019-06-10T11:22:25.532Z,99.90
2019-06-10T11:24:57.774Z,99.90
2019-06-10T11:27:27.307Z,99.90
2019-06-10T11:29:59.098Z,98.90
2019-06-10T11:32:28.854Z,99.90
2019-06-10T11:34:58.707Z,99.70
2019-06-10T11:37:28.263Z,98.00
2019-06-10T11:39:57.781Z,99.00
2019-06-10T11:42:27.268Z,98.30
2019-06-10T11:44:59.800Z,98.30
2019-06-10T11:47:28.938Z,99.90
2019-06-10T11:49:58.445Z,99.90
2019-06-10T11:52:27.934Z,99.90
2019-06-10T11:55:08.888Z,99.90
2019-06-10T11:57:28.555Z,99.90
2019-06-10T11:59:59.399Z,99.90
2019-06-10T12:02:29.035Z,99.90
2019-06-10T12:05:00.541Z,99.40
2019-06-10T12:07:29.623Z,99.90
2019-06-10T12:10:01.004Z,99.40
2019-06-10T12:12:33.439Z,99.90
2019-06-10T12:15:01.551Z,99.90
2019-06-10T12:17:42.977Z,99.90
2019-06-10T12:20:03.350Z,99.90
2019-06-10T12:22:33.116Z,99.90
2019-06-10T12:25:24.911Z,99.90
2019-06-10T12:27:34.770Z,99.90
2019-06-10T12:30:13.239Z,99.90
2019-06-10T12:32:42.621Z,99.90
2019-06-10T12:35:13.699Z,99.90
2019-06-10T12:37:43.314Z,99.90
2019-06-10T12:40:14.058Z,99.90
2019-06-10T12:42:44.742Z,99.20
2019-06-10T12:45:15.191Z,99.90
2019-06-10T12:47:44.657Z,99.90
2019-06-10T12:50:15.704Z,99.90
2019-06-10T12:52:45.174Z,99.90
2019-06-10T12:55:15.614Z,99.40
2019-06-10T12:57:45.105Z,99.40
2019-06-10T13:00:22.741Z,97.40
2019-06-10T13:02:49.279Z,99.90
2019-06-10T13:05:18.918Z,96.60
2019-06-10T13:07:49.415Z,95.80
2019-06-10T13:10:22.579Z,96.80
2019-06-10T13:12:53.185Z,93.50
2019-06-10T13:15:22.932Z,95.80
2019-06-10T13:17:53.767Z,96.20
2019-06-10T13:20:23.409Z,94.30
2019-06-10T13:22:52.894Z,95.90
2019-06-10T13:25:22.411Z,98.10
2019-06-10T13:27:51.919Z,99.10
2019-06-10T13:30:22.721Z,96.20
2019-06-10T13:32:53.256Z,95.90
2019-06-10T13:35:23.594Z,99.20
2019-06-10T13:37:53.102Z,99.00
2019-06-10T13:40:23.846Z,99.30
2019-06-10T13:42:53.330Z,99.80
2019-06-10T13:45:25.680Z,99.90
2019-06-10T13:47:55.374Z,99.90
2019-06-10T13:50:25.829Z,99.90
2019-06-10T13:52:55.395Z,99.90
2019-06-10T13:55:24.906Z,99.90
2019-06-10T13:57:54.402Z,99.90
2019-06-10T14:00:40.688Z,99.90
2019-06-10T14:02:55.511Z,99.90
2019-06-10T14:05:25.006Z,99.90
2019-06-10T14:07:55.052Z,99.90
2019-06-10T14:10:24.685Z,99.90
2019-06-10T14:12:54.158Z,99.90
2019-06-10T14:15:23.662Z,99.90
2019-06-10T14:17:53.137Z,99.90
2019-06-10T14:20:23.160Z,99.90
2019-06-10T14:22:53.029Z,99.90
2019-06-10T14:25:23.310Z,99.90
2019-06-10T14:27:53.358Z,99.50
2019-06-10T14:30:24.081Z,99.90
2019-06-10T14:32:53.586Z,97.60
2019-06-10T14:35:23.054Z,96.50
2019-06-10T14:37:53.434Z,99.90
2019-06-10T14:40:25.203Z,99.40
2019-06-10T14:42:54.177Z,99.90
2019-06-10T14:45:23.670Z,99.90
2019-06-10T14:47:54.436Z,99.90
2019-06-10T14:50:24.749Z,99.90
2019-06-10T14:52:54.270Z,99.90
2019-06-10T14:55:23.750Z,99.90
2019-06-10T14:57:53.364Z,99.90
2019-06-10T15:00:23.739Z,99.90
2019-06-10T15:02:54.017Z,99.90
2019-06-10T15:05:24.641Z,99.90
2019-06-10T15:07:54.146Z,99.90
2019-06-10T15:10:23.649Z,99.90
2019-06-10T15:12:53.150Z,99.90
2019-06-10T15:15:23.593Z,99.90
2019-06-10T15:17:53.292Z,99.90
2019-06-10T15:20:22.927Z,99.90
2019-06-10T15:22:52.743Z,99.90
2019-06-10T15:25:27.464Z,99.90
2019-06-10T15:27:53.524Z,99.90
2019-06-10T15:30:27.253Z,99.90
2019-06-10T15:32:54.222Z,99.90
2019-06-10T15:35:24.480Z,99.90
2019-06-10T15:37:54.201Z,99.90
2019-06-10T15:40:23.770Z,99.90
2019-06-10T15:42:53.465Z,99.90
2019-06-10T15:45:22.942Z,99.90
2019-06-10T15:47:53.151Z,99.90
2019-06-10T15:50:23.496Z,99.90
2019-06-10T15:52:53.913Z,99.90
2019-06-10T15:55:49.319Z,99.90
2019-06-10T15:57:55.222Z,99.90
2019-06-10T16:00:29.096Z,99.90
2019-06-10T16:02:56.275Z,99.90
2019-06-10T16:05:25.762Z,99.90
2019-06-10T16:07:55.262Z,99.90
2019-06-10T16:10:27.881Z,99.90
2019-06-10T16:12:55.858Z,99.90
2019-06-10T16:15:26.652Z,99.90
2019-06-10T16:17:56.358Z,99.90
2019-06-10T16:20:25.919Z,99.90
2019-06-10T16:22:55.408Z,99.90
2019-06-10T16:25:26.480Z,99.90
2019-06-10T16:27:56.006Z,99.90
2019-06-10T16:30:26.067Z,99.90
2019-06-10T16:32:55.679Z,99.90
2019-06-10T16:35:26.931Z,99.90
2019-06-10T16:37:56.962Z,99.90
2019-06-10T16:40:27.191Z,99.90
2019-06-10T16:42:57.947Z,99.90
2019-06-10T16:45:30.655Z,99.90
2019-06-10T16:47:58.720Z,99.90
2019-06-10T16:50:29.873Z,99.90
2019-06-10T16:53:02.984Z,99.90
2019-06-10T16:55:33.254Z,99.90
2019-06-10T16:58:03.182Z,99.90
2019-06-10T17:00:34.832Z,99.90
2019-06-10T17:03:06.654Z,99.90
2019-06-10T17:05:36.339Z,99.90
2019-06-10T17:08:05.857Z,99.90
2019-06-10T17:10:35.365Z,99.90
2019-06-10T17:13:06.577Z,99.90
2019-06-10T17:15:36.138Z,99.90
2019-06-10T17:18:06.596Z,99.90
2019-06-10T17:20:36.102Z,99.90
2019-06-10T17:23:24.667Z,99.90
2019-06-10T17:25:54.623Z,99.90
2019-06-10T17:28:28.985Z,99.90
2019-06-10T17:30:57.488Z,99.90
2019-06-10T17:33:29.409Z,99.90
2019-06-10T17:35:58.180Z,99.90
2019-06-10T17:38:28.890Z,99.90
2019-06-10T17:40:58.482Z,99.90
2019-06-10T17:43:29.258Z,99.90
2019-06-10T17:45:58.894Z,99.90
2019-06-10T17:48:29.234Z,99.90
2019-06-10T17:50:58.758Z,99.90
2019-06-10T17:53:28.289Z,99.90
2019-06-10T17:55:58.712Z,99.90
2019-06-10T17:58:38.462Z,99.90
2019-06-10T18:00:59.329Z,99.90
2019-06-10T18:03:29.799Z,99.90
2019-06-10T18:05:59.322Z,99.90
2019-06-10T18:08:29.627Z,99.90
2019-06-10T18:10:59.230Z,99.90
2019-06-10T18:13:30.085Z,99.90
2019-06-10T18:15:59.631Z,99.90
2019-06-10T18:18:30.474Z,99.90
2019-06-10T18:21:00.294Z,99.90
2019-06-10T18:23:30.856Z,99.90
2019-06-10T18:26:02.998Z,99.90
2019-06-10T18:28:35.973Z,99.90
2019-06-10T18:31:02.992Z,99.90
2019-06-10T18:33:36.210Z,99.90
2019-06-10T18:36:03.805Z,99.90
2019-06-10T18:38:35.563Z,99.90
2019-06-10T18:41:04.551Z,99.90
2019-06-10T18:43:35.349Z,99.90
2019-06-10T18:46:05.251Z,99.90
2019-06-10T18:48:37.941Z,99.90
2019-06-10T18:51:06.858Z,99.90
2019-06-10T18:53:36.990Z,99.90
2019-06-10T18:56:06.582Z,99.90
2019-06-10T18:58:37.482Z,99.90
2019-06-10T19:01:08.090Z,99.90
2019-06-10T19:03:38.307Z,99.90
2019-06-10T19:06:09.043Z,99.90
2019-06-10T19:08:39.302Z,99.90
2019-06-10T19:11:09.795Z,99.90
2019-06-10T19:13:41.010Z,99.90
2019-06-10T19:16:12.742Z,99.90
2019-06-10T19:18:43.158Z,99.90
2019-06-10T19:21:13.111Z,99.90
2019-06-10T19:23:43.797Z,99.90
2019-06-10T19:26:14.813Z,99.90
2019-06-10T19:28:45.265Z,99.90
2019-06-10T19:31:16.306Z,99.90
2019-06-10T19:33:45.776Z,99.90
2019-06-10T19:36:15.297Z,99.90
2019-06-10T19:38:44.790Z,99.90
2019-06-10T19:41:14.303Z,99.90
2019-06-10T19:43:45.417Z,99.90
2019-06-10T19:46:15.124Z,99.90
2019-06-10T19:48:56.676Z,99.90
2019-06-10T19:51:15.783Z,99.90
2019-06-10T19:53:45.280Z,99.90
2019-06-10T19:56:14.778Z,99.90
2019-06-10T19:58:46.260Z,99.90
2019-06-10T20:01:16.455Z,99.90
2019-06-10T20:03:47.040Z,99.90
2019-06-10T20:06:16.769Z,99.90
2019-06-10T20:08:47.230Z,99.90
2019-06-10T20:11:16.724Z,99.90
2019-06-10T20:13:46.820Z,99.90
2019-06-10T20:16:16.543Z,99.90
2019-06-10T20:18:49.321Z,99.90
2019-06-10T20:21:17.207Z,99.90
2019-06-10T20:23:47.746Z,99.90
2019-06-10T20:26:17.402Z,99.90
2019-06-10T20:28:52.187Z,99.90
2019-06-10T20:31:19.201Z,99.90
2019-06-10T20:33:48.692Z,99.90
2019-06-10T20:36:24.822Z,99.90
2019-06-10T20:38:50.682Z,99.90
2019-06-10T20:41:24.076Z,99.90
2019-06-10T20:43:55.567Z,99.90
2019-06-10T20:46:24.702Z,99.90
2019-06-10T20:48:54.714Z,99.90
2019-06-10T20:51:27.048Z,99.90
2019-06-10T20:53:55.473Z,99.90
2019-06-10T20:56:25.030Z,99.90
2019-06-10T20:58:56.437Z,99.90
2019-06-10T21:01:25.954Z,99.90
2019-06-10T21:03:55.443Z,99.90
2019-06-10T21:06:25.781Z,99.90
2019-06-10T21:08:55.690Z,99.90
2019-06-10T21:11:25.187Z,99.90
2019-06-10T21:13:55.712Z,99.90
2019-06-10T21:16:25.619Z,99.90
2019-06-10T21:18:55.668Z,99.90
2019-06-10T21:21:25.425Z,99.90
2019-06-10T21:23:54.928Z,99.90
2019-06-10T21:26:25.422Z,99.90
2019-06-10T21:28:55.344Z,99.90
2019-06-10T21:31:28.831Z,99.90
2019-06-10T21:33:57.018Z,99.90
2019-06-10T21:36:26.533Z,99.90
2019-06-10T21:38:56.131Z,99.90
2019-06-10T21:41:25.599Z,99.90
2019-06-10T21:43:59.112Z,99.90
2019-06-10T21:46:26.372Z,99.90
2019-06-10T21:48:56.088Z,99.90
2019-06-10T21:51:25.760Z,99.90
2019-06-10T21:53:55.392Z,99.90
2019-06-10T21:56:26.047Z,99.90
2019-06-10T21:58:55.793Z,99.90
2019-06-10T22:01:25.601Z,99.90
2019-06-10T22:04:00.781Z,99.90
2019-06-10T22:06:26.280Z,99.90
2019-06-10T22:08:56.598Z,99.90
2019-06-10T22:11:26.397Z,99.90
2019-06-10T22:13:56.335Z,99.90
2019-06-10T22:16:25.985Z,99.90
2019-06-10T22:18:55.466Z,99.90
2019-06-10T22:21:24.977Z,99.90
2019-06-10T22:23:56.725Z,99.90
2019-06-10T22:26:25.598Z,99.90
2019-06-10T22:28:57.528Z,99.90
2019-06-10T22:31:26.546Z,99.90
2019-06-10T22:33:57.570Z,99.90
2019-06-10T22:36:27.362Z,99.90
2019-06-10T22:38:59.106Z,99.90
2019-06-10T22:41:28.045Z,99.90
2019-06-10T22:43:57.696Z,99.90
2019-06-10T22:46:27.264Z,99.90
2019-06-10T22:48:57.122Z,99.90
2019-06-10T22:51:26.622Z,99.90
2019-06-10T22:53:58.168Z,99.90
2019-06-10T22:56:27.234Z,99.90
2019-06-10T22:58:57.361Z,99.90
2019-06-10T23:01:33.806Z,99.90
2019-06-10T23:03:58.177Z,99.90
2019-06-10T23:06:27.642Z,99.90
2019-06-10T23:08:58.161Z,99.90
2019-06-10T23:11:28.257Z,99.90
2019-06-10T23:13:58.428Z,99.90
2019-06-10T23:16:29.054Z,99.90
2019-06-10T23:18:59.873Z,99.90
2019-06-10T23:21:29.467Z,99.90
2019-06-10T23:24:00.169Z,99.90
2019-06-10T23:26:33.227Z,99.90
2019-06-10T23:29:03.271Z,99.90
2019-06-10T23:31:48.393Z,99.90
2019-06-10T23:34:04.269Z,99.90
2019-06-10T23:36:33.762Z,99.90
2019-06-10T23:39:04.115Z,99.90
2019-06-10T23:41:33.819Z,99.90
2019-06-10T23:44:04.362Z,99.90
2019-06-10T23:46:35.070Z,99.90
2019-06-10T23:49:04.874Z,99.90
2019-06-10T23:51:34.351Z,99.90
2019-06-10T23:54:06.083Z,99.90
2019-06-10T23:56:35.033Z,99.90
2019-06-10T23:59:04.840Z,99.90
